sensor_id;sensor_type;location;lat;lon;timestamp;P1;durP1;ratioP1;P2;durP2;ratioP2
79130;SDS011;72396;45.194;9.142;2024-03-29T00:01:34;22.13;;;11.35;;
79130;SDS011;72396;45.194;9.142;2024-03-29T00:03:59;20.25;;;11.25;;
79130;SDS011;72396;45.194;9.142;2024-03-29T00:06:24;17.27;;;10.43;;
79130;SDS011;72396;45.194;9.142;2024-03-29T00:08:50;23.98;;;10.32;;
79130;SDS011;72396;45.194;9.142;2024-03-29T00:11:15;20.50;;;11.80;;
79130;SDS011;72396;45.194;9.142;2024-03-29T00:13:40;19.67;;;10.15;;
79130;SDS011;72396;45.194;9.142;2024-03-29T00:16:06;19.13;;;10.48;;
79130;SDS011;72396;45.194;9.142;2024-03-29T00:18:32;24.15;;;12.00;;
79130;SDS011;72396;45.194;9.142;2024-03-29T00:20:57;19.60;;;10.98;;
79130;SDS011;72396;45.194;9.142;2024-03-29T00:23:22;21.55;;;10.63;;
79130;SDS011;72396;45.194;9.142;2024-03-29T00:25:48;18.85;;;10.98;;
79130;SDS011;72396;45.194;9.142;2024-03-29T00:28:13;21.70;;;10.65;;
79130;SDS011;72396;45.194;9.142;2024-03-29T00:30:38;20.73;;;11.45;;
79130;SDS011;72396;45.194;9.142;2024-03-29T00:33:04;21.88;;;11.40;;
79130;SDS011;72396;45.194;9.142;2024-03-29T00:35:29;22.65;;;11.65;;
79130;SDS011;72396;45.194;9.142;2024-03-29T00:37:55;20.27;;;10.68;;
79130;SDS011;72396;45.194;9.142;2024-03-29T00:40:21;22.00;;;11.40;;
79130;SDS011;72396;45.194;9.142;2024-03-29T00:42:46;21.48;;;11.52;;
79130;SDS011;72396;45.194;9.142;2024-03-29T00:45:11;19.08;;;10.25;;
79130;SDS011;72396;45.194;9.142;2024-03-29T00:47:37;20.85;;;11.35;;
79130;SDS011;72396;45.194;9.142;2024-03-29T00:50:02;20.38;;;11.32;;
79130;SDS011;72396;45.194;9.142;2024-03-29T00:52:28;22.92;;;12.18;;
79130;SDS011;72396;45.194;9.142;2024-03-29T00:54:53;21.10;;;10.63;;
79130;SDS011;72396;45.194;9.142;2024-03-29T00:57:19;21.80;;;11.32;;
79130;SDS011;72396;45.194;9.142;2024-03-29T00:59:44;20.17;;;11.52;;
79130;SDS011;72396;45.194;9.142;2024-03-29T01:02:09;24.02;;;12.73;;
79130;SDS011;72396;45.194;9.142;2024-03-29T01:04:35;19.45;;;11.68;;
79130;SDS011;72396;45.194;9.142;2024-03-29T01:07:00;24.27;;;11.50;;
79130;SDS011;72396;45.194;9.142;2024-03-29T01:09:26;21.63;;;12.50;;
79130;SDS011;72396;45.194;9.142;2024-03-29T01:11:51;23.17;;;11.93;;
79130;SDS011;72396;45.194;9.142;2024-03-29T01:14:16;22.02;;;11.13;;
79130;SDS011;72396;45.194;9.142;2024-03-29T01:16:42;20.38;;;11.57;;
79130;SDS011;72396;45.194;9.142;2024-03-29T01:19:07;22.88;;;11.50;;
79130;SDS011;72396;45.194;9.142;2024-03-29T01:21:35;23.20;;;11.73;;
79130;SDS011;72396;45.194;9.142;2024-03-29T01:24:00;24.40;;;12.43;;
79130;SDS011;72396;45.194;9.142;2024-03-29T01:26:26;22.27;;;12.18;;
79130;SDS011;72396;45.194;9.142;2024-03-29T01:28:51;27.25;;;12.43;;
79130;SDS011;72396;45.194;9.142;2024-03-29T01:31:17;24.15;;;12.18;;
79130;SDS011;72396;45.194;9.142;2024-03-29T01:33:42;28.65;;;14.32;;
79130;SDS011;72396;45.194;9.142;2024-03-29T01:36:07;26.40;;;12.25;;
79130;SDS011;72396;45.194;9.142;2024-03-29T01:38:33;21.55;;;11.32;;
79130;SDS011;72396;45.194;9.142;2024-03-29T01:40:59;24.05;;;11.88;;
79130;SDS011;72396;45.194;9.142;2024-03-29T01:43:24;26.42;;;12.85;;
79130;SDS011;72396;45.194;9.142;2024-03-29T01:45:53;25.83;;;12.68;;
79130;SDS011;72396;45.194;9.142;2024-03-29T01:48:23;24.77;;;13.77;;
79130;SDS011;72396;45.194;9.142;2024-03-29T01:50:49;24.92;;;13.23;;
79130;SDS011;72396;45.194;9.142;2024-03-29T01:53:16;26.17;;;13.52;;
79130;SDS011;72396;45.194;9.142;2024-03-29T01:55:43;27.00;;;12.45;;
79130;SDS011;72396;45.194;9.142;2024-03-29T01:58:09;24.63;;;11.77;;
79130;SDS011;72396;45.194;9.142;2024-03-29T02:00:36;22.85;;;12.80;;
79130;SDS011;72396;45.194;9.142;2024-03-29T02:03:04;26.65;;;13.10;;
79130;SDS011;72396;45.194;9.142;2024-03-29T02:05:34;28.67;;;15.00;;
79130;SDS011;72396;45.194;9.142;2024-03-29T02:08:01;26.63;;;13.95;;
79130;SDS011;72396;45.194;9.142;2024-03-29T02:10:27;26.02;;;13.48;;
79130;SDS011;72396;45.194;9.142;2024-03-29T02:12:52;26.33;;;13.43;;
79130;SDS011;72396;45.194;9.142;2024-03-29T02:15:18;25.92;;;13.93;;
79130;SDS011;72396;45.194;9.142;2024-03-29T02:17:43;26.95;;;13.23;;
79130;SDS011;72396;45.194;9.142;2024-03-29T02:20:09;26.25;;;13.43;;
79130;SDS011;72396;45.194;9.142;2024-03-29T02:22:36;27.55;;;13.32;;
79130;SDS011;72396;45.194;9.142;2024-03-29T02:25:06;31.73;;;14.20;;
79130;SDS011;72396;45.194;9.142;2024-03-29T02:27:31;27.67;;;14.32;;
79130;SDS011;72396;45.194;9.142;2024-03-29T02:29:57;29.63;;;14.70;;
79130;SDS011;72396;45.194;9.142;2024-03-29T02:32:22;30.92;;;16.25;;
79130;SDS011;72396;45.194;9.142;2024-03-29T02:34:48;29.23;;;13.85;;
79130;SDS011;72396;45.194;9.142;2024-03-29T02:37:13;26.88;;;13.30;;
79130;SDS011;72396;45.194;9.142;2024-03-29T02:39:38;32.92;;;14.88;;
79130;SDS011;72396;45.194;9.142;2024-03-29T02:42:04;27.88;;;13.80;;
79130;SDS011;72396;45.194;9.142;2024-03-29T02:44:29;28.27;;;13.77;;
79130;SDS011;72396;45.194;9.142;2024-03-29T02:46:55;31.02;;;15.35;;
79130;SDS011;72396;45.194;9.142;2024-03-29T02:49:20;25.98;;;14.38;;
79130;SDS011;72396;45.194;9.142;2024-03-29T02:51:45;29.17;;;14.65;;
79130;SDS011;72396;45.194;9.142;2024-03-29T02:54:11;34.10;;;16.17;;
79130;SDS011;72396;45.194;9.142;2024-03-29T02:56:36;30.58;;;16.02;;
79130;SDS011;72396;45.194;9.142;2024-03-29T02:59:02;32.90;;;15.02;;
79130;SDS011;72396;45.194;9.142;2024-03-29T03:01:27;28.75;;;15.48;;
79130;SDS011;72396;45.194;9.142;2024-03-29T03:03:52;30.02;;;14.88;;
79130;SDS011;72396;45.194;9.142;2024-03-29T03:06:18;29.73;;;14.80;;
79130;SDS011;72396;45.194;9.142;2024-03-29T03:08:43;32.78;;;16.25;;
79130;SDS011;72396;45.194;9.142;2024-03-29T03:11:27;28.52;;;14.50;;
79130;SDS011;72396;45.194;9.142;2024-03-29T03:13:52;26.98;;;15.15;;
79130;SDS011;72396;45.194;9.142;2024-03-29T03:16:17;31.60;;;15.20;;
79130;SDS011;72396;45.194;9.142;2024-03-29T03:18:43;32.30;;;15.95;;
79130;SDS011;72396;45.194;9.142;2024-03-29T03:21:08;29.60;;;14.63;;
79130;SDS011;72396;45.194;9.142;2024-03-29T03:23:34;31.30;;;13.55;;
79130;SDS011;72396;45.194;9.142;2024-03-29T03:26:00;30.00;;;16.35;;
79130;SDS011;72396;45.194;9.142;2024-03-29T03:28:29;29.23;;;14.43;;
79130;SDS011;72396;45.194;9.142;2024-03-29T03:30:54;30.67;;;15.35;;
79130;SDS011;72396;45.194;9.142;2024-03-29T03:33:20;28.08;;;13.85;;
79130;SDS011;72396;45.194;9.142;2024-03-29T03:35:45;33.60;;;16.20;;
79130;SDS011;72396;45.194;9.142;2024-03-29T03:38:11;32.20;;;14.43;;
79130;SDS011;72396;45.194;9.142;2024-03-29T03:40:37;29.10;;;14.30;;
79130;SDS011;72396;45.194;9.142;2024-03-29T03:43:03;29.13;;;14.75;;
79130;SDS011;72396;45.194;9.142;2024-03-29T03:45:37;30.80;;;15.10;;
79130;SDS011;72396;45.194;9.142;2024-03-29T03:48:03;30.60;;;14.93;;
79130;SDS011;72396;45.194;9.142;2024-03-29T03:50:30;30.15;;;14.50;;
79130;SDS011;72396;45.194;9.142;2024-03-29T03:52:55;30.08;;;14.50;;
79130;SDS011;72396;45.194;9.142;2024-03-29T03:55:21;33.25;;;14.85;;
79130;SDS011;72396;45.194;9.142;2024-03-29T03:57:46;33.45;;;14.68;;
79130;SDS011;72396;45.194;9.142;2024-03-29T04:00:12;30.98;;;14.18;;
79130;SDS011;72396;45.194;9.142;2024-03-29T04:02:38;28.85;;;15.38;;
79130;SDS011;72396;45.194;9.142;2024-03-29T04:05:03;32.22;;;15.60;;
79130;SDS011;72396;45.194;9.142;2024-03-29T04:07:29;31.17;;;14.88;;
79130;SDS011;72396;45.194;9.142;2024-03-29T04:09:54;30.10;;;14.95;;
79130;SDS011;72396;45.194;9.142;2024-03-29T04:12:19;28.92;;;13.93;;
79130;SDS011;72396;45.194;9.142;2024-03-29T04:14:45;30.23;;;15.60;;
79130;SDS011;72396;45.194;9.142;2024-03-29T04:17:10;30.55;;;15.50;;
79130;SDS011;72396;45.194;9.142;2024-03-29T04:19:35;28.95;;;14.52;;
79130;SDS011;72396;45.194;9.142;2024-03-29T04:22:01;31.20;;;14.60;;
79130;SDS011;72396;45.194;9.142;2024-03-29T04:24:27;32.90;;;15.55;;
79130;SDS011;72396;45.194;9.142;2024-03-29T04:26:53;28.75;;;15.90;;
79130;SDS011;72396;45.194;9.142;2024-03-29T04:29:18;30.63;;;15.52;;
79130;SDS011;72396;45.194;9.142;2024-03-29T04:31:46;33.88;;;16.60;;
79130;SDS011;72396;45.194;9.142;2024-03-29T04:34:12;33.35;;;15.80;;
79130;SDS011;72396;45.194;9.142;2024-03-29T04:36:37;31.85;;;15.73;;
79130;SDS011;72396;45.194;9.142;2024-03-29T04:39:03;32.05;;;15.60;;
79130;SDS011;72396;45.194;9.142;2024-03-29T04:41:29;33.28;;;16.17;;
79130;SDS011;72396;45.194;9.142;2024-03-29T04:43:59;33.22;;;15.65;;
79130;SDS011;72396;45.194;9.142;2024-03-29T04:46:24;30.83;;;14.63;;
79130;SDS011;72396;45.194;9.142;2024-03-29T04:48:50;30.33;;;16.52;;
79130;SDS011;72396;45.194;9.142;2024-03-29T04:51:15;34.95;;;16.10;;
79130;SDS011;72396;45.194;9.142;2024-03-29T04:53:40;32.92;;;15.60;;
79130;SDS011;72396;45.194;9.142;2024-03-29T04:56:06;30.25;;;14.65;;
79130;SDS011;72396;45.194;9.142;2024-03-29T04:58:32;32.58;;;15.90;;
79130;SDS011;72396;45.194;9.142;2024-03-29T05:00:57;33.67;;;15.85;;
79130;SDS011;72396;45.194;9.142;2024-03-29T05:03:23;29.65;;;14.57;;
79130;SDS011;72396;45.194;9.142;2024-03-29T05:05:49;33.45;;;16.08;;
79130;SDS011;72396;45.194;9.142;2024-03-29T05:08:15;30.73;;;15.05;;
79130;SDS011;72396;45.194;9.142;2024-03-29T05:10:41;29.20;;;15.00;;
79130;SDS011;72396;45.194;9.142;2024-03-29T05:13:07;28.95;;;15.55;;
79130;SDS011;72396;45.194;9.142;2024-03-29T05:15:32;32.28;;;15.18;;
79130;SDS011;72396;45.194;9.142;2024-03-29T05:17:59;32.05;;;14.90;;
79130;SDS011;72396;45.194;9.142;2024-03-29T05:20:24;32.08;;;14.90;;
79130;SDS011;72396;45.194;9.142;2024-03-29T05:22:49;32.13;;;15.98;;
79130;SDS011;72396;45.194;9.142;2024-03-29T05:25:15;28.92;;;15.52;;
79130;SDS011;72396;45.194;9.142;2024-03-29T05:27:40;31.27;;;15.05;;
79130;SDS011;72396;45.194;9.142;2024-03-29T05:30:06;30.50;;;16.33;;
79130;SDS011;72396;45.194;9.142;2024-03-29T05:32:32;30.63;;;16.33;;
79130;SDS011;72396;45.194;9.142;2024-03-29T05:34:57;31.27;;;16.10;;
79130;SDS011;72396;45.194;9.142;2024-03-29T05:37:23;36.42;;;15.38;;
79130;SDS011;72396;45.194;9.142;2024-03-29T05:39:50;32.63;;;17.70;;
79130;SDS011;72396;45.194;9.142;2024-03-29T05:42:27;32.30;;;15.52;;
79130;SDS011;72396;45.194;9.142;2024-03-29T05:44:54;37.75;;;17.48;;
79130;SDS011;72396;45.194;9.142;2024-03-29T05:47:20;30.23;;;16.13;;
79130;SDS011;72396;45.194;9.142;2024-03-29T05:49:46;36.42;;;16.15;;
79130;SDS011;72396;45.194;9.142;2024-03-29T05:52:11;34.90;;;17.25;;
79130;SDS011;72396;45.194;9.142;2024-03-29T05:54:39;37.25;;;16.35;;
79130;SDS011;72396;45.194;9.142;2024-03-29T05:57:05;34.10;;;17.70;;
79130;SDS011;72396;45.194;9.142;2024-03-29T05:59:31;37.85;;;18.58;;
79130;SDS011;72396;45.194;9.142;2024-03-29T06:01:57;33.28;;;17.63;;
79130;SDS011;72396;45.194;9.142;2024-03-29T06:04:22;34.03;;;16.73;;
79130;SDS011;72396;45.194;9.142;2024-03-29T06:06:55;32.30;;;16.75;;
79130;SDS011;72396;45.194;9.142;2024-03-29T06:09:23;33.95;;;17.38;;
79130;SDS011;72396;45.194;9.142;2024-03-29T06:11:48;33.38;;;17.00;;
79130;SDS011;72396;45.194;9.142;2024-03-29T06:14:13;33.28;;;16.42;;
79130;SDS011;72396;45.194;9.142;2024-03-29T06:16:39;30.80;;;16.80;;
79130;SDS011;72396;45.194;9.142;2024-03-29T06:19:22;33.33;;;17.17;;
79130;SDS011;72396;45.194;9.142;2024-03-29T06:21:48;33.25;;;16.33;;
79130;SDS011;72396;45.194;9.142;2024-03-29T06:24:13;28.60;;;15.52;;
79130;SDS011;72396;45.194;9.142;2024-03-29T06:26:39;29.10;;;15.50;;
79130;SDS011;72396;45.194;9.142;2024-03-29T06:29:04;31.92;;;15.68;;
79130;SDS011;72396;45.194;9.142;2024-03-29T06:31:29;30.30;;;15.27;;
79130;SDS011;72396;45.194;9.142;2024-03-29T06:33:55;28.98;;;15.25;;
79130;SDS011;72396;45.194;9.142;2024-03-29T06:36:23;26.05;;;13.60;;
79130;SDS011;72396;45.194;9.142;2024-03-29T06:38:50;29.58;;;15.18;;
79130;SDS011;72396;45.194;9.142;2024-03-29T06:41:15;29.10;;;14.52;;
79130;SDS011;72396;45.194;9.142;2024-03-29T06:43:41;28.27;;;14.43;;
79130;SDS011;72396;45.194;9.142;2024-03-29T06:46:09;28.55;;;15.25;;
79130;SDS011;72396;45.194;9.142;2024-03-29T06:48:35;27.42;;;13.85;;
79130;SDS011;72396;45.194;9.142;2024-03-29T06:51:00;27.27;;;14.48;;
79130;SDS011;72396;45.194;9.142;2024-03-29T06:53:26;27.90;;;14.60;;
79130;SDS011;72396;45.194;9.142;2024-03-29T06:55:54;26.85;;;13.82;;
79130;SDS011;72396;45.194;9.142;2024-03-29T06:58:19;26.50;;;13.77;;
79130;SDS011;72396;45.194;9.142;2024-03-29T07:00:46;27.67;;;14.10;;
79130;SDS011;72396;45.194;9.142;2024-03-29T07:03:14;27.27;;;13.57;;
79130;SDS011;72396;45.194;9.142;2024-03-29T07:05:40;28.48;;;15.32;;
79130;SDS011;72396;45.194;9.142;2024-03-29T07:08:06;28.90;;;14.18;;
79130;SDS011;72396;45.194;9.142;2024-03-29T07:10:31;29.85;;;15.32;;
79130;SDS011;72396;45.194;9.142;2024-03-29T07:12:57;29.90;;;14.57;;
79130;SDS011;72396;45.194;9.142;2024-03-29T07:15:22;31.30;;;14.77;;
79130;SDS011;72396;45.194;9.142;2024-03-29T07:17:48;32.83;;;15.85;;
79130;SDS011;72396;45.194;9.142;2024-03-29T07:20:15;28.88;;;15.02;;
79130;SDS011;72396;45.194;9.142;2024-03-29T07:22:41;31.25;;;14.40;;
79130;SDS011;72396;45.194;9.142;2024-03-29T07:25:07;33.22;;;17.23;;
79130;SDS011;72396;45.194;9.142;2024-03-29T07:27:32;31.02;;;15.60;;
79130;SDS011;72396;45.194;9.142;2024-03-29T07:30:01;33.83;;;16.63;;
79130;SDS011;72396;45.194;9.142;2024-03-29T07:32:30;35.97;;;17.52;;
79130;SDS011;72396;45.194;9.142;2024-03-29T07:34:56;33.35;;;16.27;;
79130;SDS011;72396;45.194;9.142;2024-03-29T07:37:23;34.40;;;17.42;;
79130;SDS011;72396;45.194;9.142;2024-03-29T07:39:49;37.22;;;17.15;;
79130;SDS011;72396;45.194;9.142;2024-03-29T07:42:14;35.97;;;17.08;;
79130;SDS011;72396;45.194;9.142;2024-03-29T07:44:40;32.10;;;16.95;;
79130;SDS011;72396;45.194;9.142;2024-03-29T07:47:05;31.27;;;15.68;;
79130;SDS011;72396;45.194;9.142;2024-03-29T07:49:31;29.20;;;14.25;;
79130;SDS011;72396;45.194;9.142;2024-03-29T07:51:56;26.38;;;14.50;;
79130;SDS011;72396;45.194;9.142;2024-03-29T07:54:21;28.83;;;13.98;;
79130;SDS011;72396;45.194;9.142;2024-03-29T07:56:47;27.27;;;14.32;;
79130;SDS011;72396;45.194;9.142;2024-03-29T07:59:12;27.98;;;14.63;;
79130;SDS011;72396;45.194;9.142;2024-03-29T08:01:38;27.13;;;14.00;;
79130;SDS011;72396;45.194;9.142;2024-03-29T08:04:06;25.33;;;13.90;;
79130;SDS011;72396;45.194;9.142;2024-03-29T08:06:31;27.00;;;13.80;;
79130;SDS011;72396;45.194;9.142;2024-03-29T08:08:57;27.10;;;14.63;;
79130;SDS011;72396;45.194;9.142;2024-03-29T08:11:25;26.75;;;14.82;;
79130;SDS011;72396;45.194;9.142;2024-03-29T08:13:51;28.90;;;15.10;;
79130;SDS011;72396;45.194;9.142;2024-03-29T08:16:17;26.33;;;14.20;;
79130;SDS011;72396;45.194;9.142;2024-03-29T08:18:42;30.17;;;14.32;;
79130;SDS011;72396;45.194;9.142;2024-03-29T08:21:10;29.33;;;14.68;;
79130;SDS011;72396;45.194;9.142;2024-03-29T08:23:38;30.92;;;14.40;;
79130;SDS011;72396;45.194;9.142;2024-03-29T08:26:04;26.38;;;14.30;;
79130;SDS011;72396;45.194;9.142;2024-03-29T08:28:29;28.70;;;15.02;;
79130;SDS011;72396;45.194;9.142;2024-03-29T08:31:02;23.13;;;13.38;;
79130;SDS011;72396;45.194;9.142;2024-03-29T08:33:29;24.45;;;13.88;;
79130;SDS011;72396;45.194;9.142;2024-03-29T08:35:56;24.80;;;14.00;;
79130;SDS011;72396;45.194;9.142;2024-03-29T08:38:22;22.48;;;12.98;;
79130;SDS011;72396;45.194;9.142;2024-03-29T08:40:48;24.27;;;13.43;;
79130;SDS011;72396;45.194;9.142;2024-03-29T08:43:14;24.33;;;13.82;;
79130;SDS011;72396;45.194;9.142;2024-03-29T08:45:41;24.42;;;13.32;;
79130;SDS011;72396;45.194;9.142;2024-03-29T08:48:09;25.40;;;14.48;;
79130;SDS011;72396;45.194;9.142;2024-03-29T08:50:35;26.08;;;14.23;;
79130;SDS011;72396;45.194;9.142;2024-03-29T08:53:02;26.50;;;14.40;;
79130;SDS011;72396;45.194;9.142;2024-03-29T08:55:28;23.60;;;14.73;;
79130;SDS011;72396;45.194;9.142;2024-03-29T08:57:54;24.60;;;13.70;;
79130;SDS011;72396;45.194;9.142;2024-03-29T09:00:20;23.63;;;14.40;;
79130;SDS011;72396;45.194;9.142;2024-03-29T09:02:48;24.10;;;13.80;;
79130;SDS011;72396;45.194;9.142;2024-03-29T09:05:13;25.30;;;14.13;;
79130;SDS011;72396;45.194;9.142;2024-03-29T09:07:39;25.33;;;13.98;;
79130;SDS011;72396;45.194;9.142;2024-03-29T09:10:06;24.95;;;13.48;;
79130;SDS011;72396;45.194;9.142;2024-03-29T09:12:32;28.63;;;14.52;;
79130;SDS011;72396;45.194;9.142;2024-03-29T09:14:57;25.58;;;14.55;;
79130;SDS011;72396;45.194;9.142;2024-03-29T09:17:23;27.13;;;14.52;;
79130;SDS011;72396;45.194;9.142;2024-03-29T09:19:50;24.48;;;14.95;;
79130;SDS011;72396;45.194;9.142;2024-03-29T09:22:17;24.83;;;13.77;;
79130;SDS011;72396;45.194;9.142;2024-03-29T09:24:42;24.40;;;14.75;;
79130;SDS011;72396;45.194;9.142;2024-03-29T09:27:08;26.63;;;14.57;;
79130;SDS011;72396;45.194;9.142;2024-03-29T09:29:33;23.65;;;14.38;;
79130;SDS011;72396;45.194;9.142;2024-03-29T09:31:59;27.02;;;15.05;;
79130;SDS011;72396;45.194;9.142;2024-03-29T09:34:26;30.20;;;15.55;;
79130;SDS011;72396;45.194;9.142;2024-03-29T09:36:52;27.38;;;15.10;;
79130;SDS011;72396;45.194;9.142;2024-03-29T09:39:17;28.48;;;14.82;;
79130;SDS011;72396;45.194;9.142;2024-03-29T09:41:44;26.48;;;16.05;;
79130;SDS011;72396;45.194;9.142;2024-03-29T09:44:10;26.92;;;15.40;;
79130;SDS011;72396;45.194;9.142;2024-03-29T09:46:36;28.90;;;14.85;;
79130;SDS011;72396;45.194;9.142;2024-03-29T09:49:04;27.27;;;15.18;;
79130;SDS011;72396;45.194;9.142;2024-03-29T09:51:31;29.83;;;16.65;;
79130;SDS011;72396;45.194;9.142;2024-03-29T09:53:58;30.88;;;16.17;;
79130;SDS011;72396;45.194;9.142;2024-03-29T09:56:27;33.40;;;15.98;;
79130;SDS011;72396;45.194;9.142;2024-03-29T09:58:52;28.95;;;16.58;;
79130;SDS011;72396;45.194;9.142;2024-03-29T10:01:18;30.13;;;15.35;;
79130;SDS011;72396;45.194;9.142;2024-03-29T10:03:45;28.45;;;14.65;;
79130;SDS011;72396;45.194;9.142;2024-03-29T10:06:18;30.58;;;15.48;;
79130;SDS011;72396;45.194;9.142;2024-03-29T10:08:44;29.42;;;15.18;;
79130;SDS011;72396;45.194;9.142;2024-03-29T10:11:10;30.48;;;14.63;;
79130;SDS011;72396;45.194;9.142;2024-03-29T10:13:36;26.90;;;16.23;;
79130;SDS011;72396;45.194;9.142;2024-03-29T10:16:02;32.03;;;15.68;;
79130;SDS011;72396;45.194;9.142;2024-03-29T10:18:29;29.75;;;14.90;;
79130;SDS011;72396;45.194;9.142;2024-03-29T10:21:00;30.67;;;15.10;;
79130;SDS011;72396;45.194;9.142;2024-03-29T10:23:30;31.02;;;15.85;;
79130;SDS011;72396;45.194;9.142;2024-03-29T10:25:56;28.52;;;15.88;;
79130;SDS011;72396;45.194;9.142;2024-03-29T10:28:22;32.15;;;16.27;;
79130;SDS011;72396;45.194;9.142;2024-03-29T10:30:48;29.15;;;14.98;;
79130;SDS011;72396;45.194;9.142;2024-03-29T10:33:14;27.95;;;14.82;;
79130;SDS011;72396;45.194;9.142;2024-03-29T10:35:41;32.25;;;17.42;;
79130;SDS011;72396;45.194;9.142;2024-03-29T10:38:08;27.85;;;15.82;;
79130;SDS011;72396;45.194;9.142;2024-03-29T10:40:35;32.33;;;16.35;;
79130;SDS011;72396;45.194;9.142;2024-03-29T10:43:10;32.75;;;17.58;;
79130;SDS011;72396;45.194;9.142;2024-03-29T10:45:41;32.05;;;16.63;;
79130;SDS011;72396;45.194;9.142;2024-03-29T10:48:08;31.17;;;16.90;;
79130;SDS011;72396;45.194;9.142;2024-03-29T10:50:35;33.38;;;16.70;;
79130;SDS011;72396;45.194;9.142;2024-03-29T10:53:01;32.42;;;17.05;;
79130;SDS011;72396;45.194;9.142;2024-03-29T10:55:32;33.45;;;16.95;;
79130;SDS011;72396;45.194;9.142;2024-03-29T11:00:25;33.30;;;15.68;;
79130;SDS011;72396;45.194;9.142;2024-03-29T11:05:48;29.77;;;15.45;;
79130;SDS011;72396;45.194;9.142;2024-03-29T11:08:24;34.30;;;17.50;;
79130;SDS011;72396;45.194;9.142;2024-03-29T11:10:53;29.60;;;15.68;;
79130;SDS011;72396;45.194;9.142;2024-03-29T11:15:47;32.30;;;17.30;;
79130;SDS011;72396;45.194;9.142;2024-03-29T11:18:14;33.38;;;16.80;;
79130;SDS011;72396;45.194;9.142;2024-03-29T11:20:45;34.15;;;16.95;;
79130;SDS011;72396;45.194;9.142;2024-03-29T11:23:16;32.55;;;17.08;;
79130;SDS011;72396;45.194;9.142;2024-03-29T11:25:43;36.92;;;18.55;;
79130;SDS011;72396;45.194;9.142;2024-03-29T11:28:14;35.38;;;17.30;;
79130;SDS011;72396;45.194;9.142;2024-03-29T11:30:46;35.83;;;18.00;;
79130;SDS011;72396;45.194;9.142;2024-03-29T11:36:17;32.97;;;17.45;;
79130;SDS011;72396;45.194;9.142;2024-03-29T11:38:46;34.95;;;18.20;;
79130;SDS011;72396;45.194;9.142;2024-03-29T11:41:18;33.08;;;16.92;;
79130;SDS011;72396;45.194;9.142;2024-03-29T11:43:46;34.70;;;18.02;;
79130;SDS011;72396;45.194;9.142;2024-03-29T11:46:12;36.50;;;18.77;;
79130;SDS011;72396;45.194;9.142;2024-03-29T11:48:39;31.90;;;17.08;;
79130;SDS011;72396;45.194;9.142;2024-03-29T11:51:06;33.78;;;18.23;;
79130;SDS011;72396;45.194;9.142;2024-03-29T11:53:37;36.47;;;19.95;;
79130;SDS011;72396;45.194;9.142;2024-03-29T11:56:03;36.38;;;18.13;;
79130;SDS011;72396;45.194;9.142;2024-03-29T11:58:30;36.35;;;17.63;;
79130;SDS011;72396;45.194;9.142;2024-03-29T12:00:57;39.08;;;17.98;;
79130;SDS011;72396;45.194;9.142;2024-03-29T12:03:27;37.90;;;19.17;;
79130;SDS011;72396;45.194;9.142;2024-03-29T12:05:54;34.33;;;17.60;;
79130;SDS011;72396;45.194;9.142;2024-03-29T12:08:23;39.53;;;18.67;;
79130;SDS011;72396;45.194;9.142;2024-03-29T12:10:53;34.58;;;17.67;;
79130;SDS011;72396;45.194;9.142;2024-03-29T12:13:19;37.00;;;18.08;;
79130;SDS011;72396;45.194;9.142;2024-03-29T12:15:44;38.17;;;18.15;;
79130;SDS011;72396;45.194;9.142;2024-03-29T12:18:09;38.15;;;17.52;;
79130;SDS011;72396;45.194;9.142;2024-03-29T12:20:36;35.25;;;18.48;;
79130;SDS011;72396;45.194;9.142;2024-03-29T12:23:03;40.00;;;18.67;;
79130;SDS011;72396;45.194;9.142;2024-03-29T12:25:31;40.72;;;18.80;;
79130;SDS011;72396;45.194;9.142;2024-03-29T12:27:58;36.05;;;18.02;;
79130;SDS011;72396;45.194;9.142;2024-03-29T12:30:24;37.72;;;18.02;;
79130;SDS011;72396;45.194;9.142;2024-03-29T12:35:37;35.63;;;17.63;;
79130;SDS011;72396;45.194;9.142;2024-03-29T12:38:03;37.92;;;18.52;;
79130;SDS011;72396;45.194;9.142;2024-03-29T12:40:30;36.83;;;18.92;;
79130;SDS011;72396;45.194;9.142;2024-03-29T12:43:05;36.15;;;17.90;;
79130;SDS011;72396;45.194;9.142;2024-03-29T12:45:33;34.53;;;17.25;;
79130;SDS011;72396;45.194;9.142;2024-03-29T12:47:58;37.50;;;17.55;;
79130;SDS011;72396;45.194;9.142;2024-03-29T12:52:58;40.25;;;19.17;;
79130;SDS011;72396;45.194;9.142;2024-03-29T12:55:25;40.35;;;18.20;;
79130;SDS011;72396;45.194;9.142;2024-03-29T12:58:11;31.70;;;16.63;;
79130;SDS011;72396;45.194;9.142;2024-03-29T13:00:38;39.40;;;17.88;;
79130;SDS011;72396;45.194;9.142;2024-03-29T13:03:04;35.47;;;17.75;;
79130;SDS011;72396;45.194;9.142;2024-03-29T13:05:30;33.15;;;17.45;;
79130;SDS011;72396;45.194;9.142;2024-03-29T13:08:01;33.30;;;17.58;;
79130;SDS011;72396;45.194;9.142;2024-03-29T13:10:28;38.80;;;17.10;;
79130;SDS011;72396;45.194;9.142;2024-03-29T13:12:53;36.40;;;18.02;;
79130;SDS011;72396;45.194;9.142;2024-03-29T13:15:19;36.50;;;17.88;;
79130;SDS011;72396;45.194;9.142;2024-03-29T13:17:47;38.47;;;18.52;;
79130;SDS011;72396;45.194;9.142;2024-03-29T13:20:14;36.30;;;16.67;;
79130;SDS011;72396;45.194;9.142;2024-03-29T13:22:43;35.63;;;18.45;;
79130;SDS011;72396;45.194;9.142;2024-03-29T13:25:11;38.78;;;19.17;;
79130;SDS011;72396;45.194;9.142;2024-03-29T13:27:37;36.17;;;17.55;;
79130;SDS011;72396;45.194;9.142;2024-03-29T13:30:05;34.95;;;17.25;;
79130;SDS011;72396;45.194;9.142;2024-03-29T13:32:34;36.70;;;17.88;;
79130;SDS011;72396;45.194;9.142;2024-03-29T13:35:00;40.55;;;17.98;;
79130;SDS011;72396;45.194;9.142;2024-03-29T13:37:26;39.03;;;17.77;;
79130;SDS011;72396;45.194;9.142;2024-03-29T13:39:52;34.03;;;17.52;;
79130;SDS011;72396;45.194;9.142;2024-03-29T13:42:18;37.00;;;17.88;;
79130;SDS011;72396;45.194;9.142;2024-03-29T13:44:44;39.00;;;18.65;;
79130;SDS011;72396;45.194;9.142;2024-03-29T13:47:10;33.08;;;16.35;;
79130;SDS011;72396;45.194;9.142;2024-03-29T13:49:41;36.60;;;17.67;;
79130;SDS011;72396;45.194;9.142;2024-03-29T13:52:07;30.73;;;16.08;;
79130;SDS011;72396;45.194;9.142;2024-03-29T13:54:33;34.88;;;17.13;;
79130;SDS011;72396;45.194;9.142;2024-03-29T13:56:59;33.83;;;16.35;;
79130;SDS011;72396;45.194;9.142;2024-03-29T13:59:24;36.60;;;15.73;;
79130;SDS011;72396;45.194;9.142;2024-03-29T14:01:50;33.28;;;16.60;;
79130;SDS011;72396;45.194;9.142;2024-03-29T14:04:15;36.42;;;16.77;;
79130;SDS011;72396;45.194;9.142;2024-03-29T14:06:41;36.60;;;16.45;;
79130;SDS011;72396;45.194;9.142;2024-03-29T14:09:07;35.97;;;16.65;;
79130;SDS011;72396;45.194;9.142;2024-03-29T14:11:33;38.00;;;18.80;;
79130;SDS011;72396;45.194;9.142;2024-03-29T14:13:58;34.83;;;17.50;;
79130;SDS011;72396;45.194;9.142;2024-03-29T14:16:23;35.70;;;16.85;;
79130;SDS011;72396;45.194;9.142;2024-03-29T14:18:49;32.95;;;16.20;;
79130;SDS011;72396;45.194;9.142;2024-03-29T14:21:14;30.70;;;16.33;;
79130;SDS011;72396;45.194;9.142;2024-03-29T14:23:40;35.90;;;16.95;;
79130;SDS011;72396;45.194;9.142;2024-03-29T14:26:05;32.80;;;17.20;;
79130;SDS011;72396;45.194;9.142;2024-03-29T14:28:31;36.63;;;15.95;;
79130;SDS011;72396;45.194;9.142;2024-03-29T14:30:56;34.10;;;16.50;;
79130;SDS011;72396;45.194;9.142;2024-03-29T14:33:22;32.90;;;16.85;;